Time;durP1;ratioP1;P1;durP2;ratioP2;P2;SDS_P1;SDS_P2;PMS_P1;PMS_P2;Temp;Humidity;BMP_temperature;BMP_pressure;BME280_temperature;BME280_humidity;BME280_pressure;Samples;Min_cycle;Max_cycle;Signal;HPM_P1;HPM_P2
2022/07/01 00:00:54;;;;;;;1.88;1.88;;;;;;;;;;5057014;28;20214;-71
2022/07/01 00:03:48;;;;;;;2.20;2.10;;;;;;;;;;5063365;28;20215;-71
2022/07/01 00:06:37;;;;;;;1.70;1.70;;;;;;;;;;5060284;28;20227;-71
2022/07/01 00:09:24;;;;;;;1.65;1.60;;;;;;;;;;5058210;28;20231;-71
2022/07/01 00:12:11;;;;;;;1.73;1.73;;;;;;;;;;5056702;28;20240;-71
2022/07/01 00:14:58;;;;;;;2.10;2.00;;;;;;;;;;5059728;28;20231;-71
2022/07/01 00:17:45;;;;;;;1.73;1.73;;;;;;;;;;5057607;28;20207;-71
2022/07/01 00:20:33;;;;;;;2.10;2.00;;;;;;;;;;5059111;28;20581;-71
2022/07/01 00:23:21;;;;;;;2.00;1.90;;;;;;;;;;5059077;28;20233;-71
2022/07/01 00:26:08;;;;;;;1.85;1.83;;;;;;;;;;5057600;28;20378;-71
2022/07/01 00:28:55;;;;;;;2.15;2.03;;;;;;;;;;5062989;28;20338;-71
2022/07/01 00:31:42;;;;;;;2.28;2.17;;;;;;;;;;5065191;28;20250;-71
2022/07/01 00:34:29;;;;;;;1.67;1.67;;;;;;;;;;5060539;28;20229;-71
2022/07/01 00:37:16;;;;;;;2.10;2.00;;;;;;;;;;5052345;28;20223;-71
2022/07/01 00:40:06;;;;;;;2.00;1.90;;;;;;;;;;5059087;28;20226;-71
2022/07/01 00:42:53;;;;;;;2.30;2.20;;;;;;;;;;5053338;28;20215;-71
2022/07/01 00:45:45;;;;;;;1.85;1.75;;;;;;;;;;5057753;28;20299;-71
2022/07/01 00:48:33;;;;;;;2.03;1.92;;;;;;;;;;5058324;28;20286;-71
2022/07/01 00:51:21;;;;;;;2.20;2.10;;;;;;;;;;5058111;28;20215;-70
2022/07/01 00:54:08;;;;;;;2.10;2.00;;;;;;;;;;5057657;28;20241;-72
2022/07/01 00:56:57;;;;;;;1.98;1.88;;;;;;;;;;5055345;28;20246;-72
2022/07/01 00:59:45;;;;;;;1.98;1.88;;;;;;;;;;5057202;28;20270;-71
2022/07/01 01:02:32;;;;;;;2.10;2.00;;;;;;;;;;5058742;28;20241;-72
2022/07/01 01:05:21;;;;;;;2.20;2.10;;;;;;;;;;5059403;28;20195;-72
2022/07/01 01:08:10;;;;;;;2.17;2.08;;;;;;;;;;5055439;28;20259;-71
2022/07/01 01:10:57;;;;;;;2.08;1.98;;;;;;;;;;5061789;28;20210;-70
2022/07/01 01:13:46;;;;;;;1.95;1.90;;;;;;;;;;5056069;28;20253;-71
2022/07/01 01:16:35;;;;;;;2.30;2.10;;;;;;;;;;5059367;28;20283;-71
2022/07/01 01:19:22;;;;;;;2.20;2.10;;;;;;;;;;5055498;28;20289;-71
2022/07/01 01:22:11;;;;;;;1.90;1.90;;;;;;;;;;5058006;28;20212;-71
2022/07/01 01:24:59;;;;;;;1.98;1.98;;;;;;;;;;5058740;28;20212;-71
2022/07/01 01:27:47;;;;;;;2.10;2.00;;;;;;;;;;5060060;28;20623;-71
2022/07/01 01:30:35;;;;;;;2.15;2.05;;;;;;;;;;5058961;28;20604;-71
2022/07/01 01:33:22;;;;;;;2.20;2.10;;;;;;;;;;5065693;28;20208;-71
2022/07/01 01:36:10;;;;;;;2.00;1.90;;;;;;;;;;5063731;28;20199;-71
2022/07/01 01:39:01;;;;;;;2.03;1.92;;;;;;;;;;5061025;28;20207;-71
2022/07/01 01:41:48;;;;;;;1.88;1.88;;;;;;;;;;5061962;28;20569;-71
2022/07/01 01:44:35;;;;;;;2.17;2.08;;;;;;;;;;5064768;28;20206;-71
2022/07/01 01:47:22;;;;;;;2.00;1.98;;;;;;;;;;5064259;28;20300;-71
2022/07/01 01:50:13;;;;;;;2.20;2.10;;;;;;;;;;5067455;28;20763;-71
2022/07/01 01:53:00;;;;;;;1.77;1.77;;;;;;;;;;5065142;28;20678;-71
2022/07/01 01:55:48;;;;;;;1.90;1.90;;;;;;;;;;5060085;28;20206;-71
2022/07/01 01:58:36;;;;;;;1.85;1.85;;;;;;;;;;5058983;28;20211;-71
2022/07/01 02:01:23;;;;;;;2.03;1.92;;;;;;;;;;5058841;28;20208;-71
2022/07/01 02:04:11;;;;;;;2.20;2.10;;;;;;;;;;5063409;28;20195;-71
2022/07/01 02:06:58;;;;;;;2.08;2.00;;;;;;;;;;5065045;28;20224;-71
2022/07/01 02:09:46;;;;;;;1.63;1.63;;;;;;;;;;5064208;28;20247;-71
2022/07/01 02:12:34;;;;;;;1.90;1.80;;;;;;;;;;5059119;28;20297;-71
2022/07/01 02:15:21;;;;;;;2.00;1.90;;;;;;;;;;5059592;28;20212;-71
2022/07/01 02:18:08;;;;;;;1.98;1.88;;;;;;;;;;5065329;28;20879;-71
2022/07/01 02:20:55;;;;;;;1.90;1.90;;;;;;;;;;5061649;28;20207;-71
2022/07/01 02:23:43;;;;;;;1.88;1.77;;;;;;;;;;5064450;28;20218;-71
2022/07/01 02:26:30;;;;;;;2.00;2.00;;;;;;;;;;5058039;28;20231;-72
2022/07/01 02:29:18;;;;;;;1.90;1.88;;;;;;;;;;5065153;28;20706;-71
2022/07/01 02:32:06;;;;;;;1.60;1.60;;;;;;;;;;5059793;28;20253;-71
2022/07/01 02:34:53;;;;;;;1.92;1.88;;;;;;;;;;5061661;28;20663;-71
2022/07/01 02:37:40;;;;;;;2.00;1.90;;;;;;;;;;5059437;28;20228;-72
2022/07/01 02:40:27;;;;;;;1.80;1.73;;;;;;;;;;5057409;28;20215;-71
2022/07/01 02:43:15;;;;;;;1.67;1.67;;;;;;;;;;5062515;28;20208;-71
2022/07/01 02:46:04;;;;;;;1.52;1.52;;;;;;;;;;5060777;28;20717;-71
2022/07/01 02:48:51;;;;;;;1.73;1.73;;;;;;;;;;5056647;28;20210;-71
2022/07/01 02:51:38;;;;;;;1.80;1.80;;;;;;;;;;5060599;28;20213;-71
2022/07/01 02:54:25;;;;;;;1.55;1.55;;;;;;;;;;5056895;28;20213;-71
2022/07/01 02:57:13;;;;;;;1.42;1.42;;;;;;;;;;5064724;28;20207;-71
2022/07/01 02:59:59;;;;;;;1.65;1.65;;;;;;;;;;5062484;28;20204;-71
2022/07/01 03:02:48;;;;;;;1.98;1.88;;;;;;;;;;5061887;28;20267;-71
2022/07/01 03:05:35;;;;;;;2.05;1.70;;;;;;;;;;5065408;28;20207;-70
2022/07/01 03:08:22;;;;;;;1.58;1.58;;;;;;;;;;5063943;28;21396;-72
2022/07/01 03:11:09;;;;;;;1.55;1.55;;;;;;;;;;5064004;28;20622;-71
2022/07/01 03:13:56;;;;;;;1.80;1.80;;;;;;;;;;5059628;28;20211;-71
2022/07/01 03:16:46;;;;;;;1.60;1.50;;;;;;;;;;5061612;28;20206;-71
2022/07/01 03:19:35;;;;;;;1.55;1.50;;;;;;;;;;5064337;28;20576;-71
2022/07/01 03:22:23;;;;;;;1.40;1.40;;;;;;;;;;5061567;28;20573;-71
2022/07/01 03:25:11;;;;;;;1.42;1.42;;;;;;;;;;5061020;28;20215;-72
2022/07/01 03:27:58;;;;;;;1.90;1.80;;;;;;;;;;5064932;28;20683;-72
2022/07/01 03:30:45;;;;;;;1.70;1.60;;;;;;;;;;5060011;28;20219;-71
2022/07/01 03:33:32;;;;;;;1.73;1.73;;;;;;;;;;5065525;28;20675;-71
2022/07/01 03:36:20;;;;;;;1.48;1.48;;;;;;;;;;5062098;28;20199;-71
2022/07/01 03:39:07;;;;;;;1.55;1.55;;;;;;;;;;5059102;28;20333;-71
2022/07/01 03:41:54;;;;;;;1.77;1.63;;;;;;;;;;5057237;28;20211;-71
2022/07/01 03:44:41;;;;;;;1.38;1.38;;;;;;;;;;5064287;28;20223;-71
2022/07/01 03:47:29;;;;;;;1.60;1.50;;;;;;;;;;5064145;28;20288;-71
2022/07/01 03:50:16;;;;;;;2.30;1.65;;;;;;;;;;5062472;28;20237;-71
2022/07/01 03:56:23;;;;;;;1.48;1.48;;;;;;;;;;4986046;28;20209;-71
2022/07/01 03:59:10;;;;;;;1.60;1.60;;;;;;;;;;4990190;28;20340;-71
2022/07/01 04:01:59;;;;;;;1.58;1.58;;;;;;;;;;5040496;28;20241;-70
2022/07/01 04:04:46;;;;;;;1.75;1.70;;;;;;;;;;5063258;28;20226;-71
2022/07/01 04:07:33;;;;;;;1.50;1.50;;;;;;;;;;5057133;28;20245;-71
2022/07/01 04:10:21;;;;;;;1.40;1.40;;;;;;;;;;5059281;28;20241;-71
2022/07/01 04:13:09;;;;;;;1.52;1.52;;;;;;;;;;5055516;28;20208;-72
2022/07/01 04:15:56;;;;;;;1.17;1.17;;;;;;;;;;5060262;28;20564;-71
2022/07/01 04:18:43;;;;;;;1.35;1.25;;;;;;;;;;5057838;28;20285;-71
2022/07/01 04:24:35;;;;;;;1.40;1.40;;;;;;;;;;5057279;28;20691;-70
2022/07/01 04:27:24;;;;;;;1.23;1.23;;;;;;;;;;5054950;28;20256;-70
2022/07/01 04:30:11;;;;;;;1.23;1.23;;;;;;;;;;5061086;28;20215;-71
2022/07/01 04:32:58;;;;;;;1.50;1.50;;;;;;;;;;5062356;28;20205;-71
2022/07/01 04:35:45;;;;;;;1.33;1.33;;;;;;;;;;5056749;28;20208;-71
2022/07/01 04:38:32;;;;;;;1.55;1.45;;;;;;;;;;5061960;28;20791;-71
2022/07/01 04:44:27;;;;;;;1.65;1.58;;;;;;;;;;5060503;28;20573;-71
2022/07/01 04:47:14;;;;;;;1.42;1.42;;;;;;;;;;5057860;28;20233;-71
2022/07/01 04:50:02;;;;;;;1.48;1.48;;;;;;;;;;5060242;28;20593;-71
2022/07/01 04:52:49;;;;;;;1.38;1.38;;;;;;;;;;5057379;28;20357;-71
2022/07/01 04:55:36;;;;;;;1.30;1.30;;;;;;;;;;5064007;28;20345;-71
2022/07/01 04:58:23;;;;;;;1.35;1.35;;;;;;;;;;5055143;28;20200;-71
2022/07/01 05:01:11;;;;;;;1.30;1.30;;;;;;;;;;5062691;28;20212;-71
2022/07/01 05:03:59;;;;;;;1.35;1.27;;;;;;;;;;5066097;28;20218;-71
2022/07/01 05:06:47;;;;;;;1.40;1.40;;;;;;;;;;5064790;28;20222;-70
2022/07/01 05:09:35;;;;;;;1.20;1.20;;;;;;;;;;5061326;28;20240;-70
2022/07/01 05:12:23;;;;;;;1.23;1.23;;;;;;;;;;5065563;28;20203;-70
2022/07/01 05:15:10;;;;;;;1.30;1.30;;;;;;;;;;5061446;28;20205;-71
2022/07/01 05:24:08;;;;;;;1.10;1.10;;;;;;;;;;5061490;28;20682;-71
2022/07/01 05:26:56;;;;;;;1.20;1.20;;;;;;;;;;5059713;28;20219;-71
2022/07/01 05:29:43;;;;;;;1.17;1.15;;;;;;;;;;5063953;28;20221;-71
2022/07/01 05:32:30;;;;;;;1.27;1.27;;;;;;;;;;5068890;28;20686;-71
2022/07/01 05:35:18;;;;;;;1.10;1.10;;;;;;;;;;5064891;28;20196;-71
2022/07/01 05:38:05;;;;;;;1.20;1.10;;;;;;;;;;5064746;28;20210;-71
2022/07/01 05:40:53;;;;;;;0.98;0.98;;;;;;;;;;5060273;28;20211;-71
2022/07/01 05:43:40;;;;;;;1.13;1.13;;;;;;;;;;5062265;28;20242;-72
2022/07/01 05:46:27;;;;;;;1.05;1.05;;;;;;;;;;5060965;28;20660;-71
2022/07/01 05:49:14;;;;;;;1.17;1.17;;;;;;;;;;5059438;28;20203;-71
2022/07/01 05:52:03;;;;;;;1.08;1.08;;;;;;;;;;5060617;28;20212;-72
2022/07/01 05:54:50;;;;;;;1.20;1.20;;;;;;;;;;5061742;28;20555;-70
2022/07/01 05:57:37;;;;;;;1.15;1.10;;;;;;;;;;5063464;28;20203;-72
2022/07/01 06:00:24;;;;;;;1.15;1.15;;;;;;;;;;5055642;28;20699;-71
2022/07/01 06:03:12;;;;;;;1.23;1.23;;;;;;;;;;5061634;28;20227;-71
2022/07/01 06:05:59;;;;;;;1.52;1.42;;;;;;;;;;5060569;28;20215;-71
2022/07/01 06:08:48;;;;;;;1.23;1.23;;;;;;;;;;5062776;28;20235;-71
2022/07/01 06:11:35;;;;;;;1.20;1.20;;;;;;;;;;5064590;28;20282;-71
2022/07/01 06:14:22;;;;;;;1.25;1.25;;;;;;;;;;5054637;28;20576;-71
2022/07/01 06:17:09;;;;;;;1.20;1.20;;;;;;;;;;5060807;28;20209;-71
2022/07/01 06:19:56;;;;;;;1.10;1.10;;;;;;;;;;5059343;28;20204;-70
2022/07/01 06:22:43;;;;;;;1.02;0.90;;;;;;;;;;5054433;28;20215;-71
2022/07/01 06:25:32;;;;;;;1.27;1.27;;;;;;;;;;5056373;28;20207;-71
2022/07/01 06:28:19;;;;;;;0.88;0.88;;;;;;;;;;5057023;28;20235;-71
2022/07/01 06:31:07;;;;;;;0.93;0.93;;;;;;;;;;5058691;28;20211;-71
2022/07/01 06:33:54;;;;;;;1.17;1.17;;;;;;;;;;5060526;28;20204;-72
2022/07/01 06:36:41;;;;;;;1.20;1.20;;;;;;;;;;5057459;28;20662;-71
2022/07/01 06:39:28;;;;;;;0.98;0.98;;;;;;;;;;5062078;28;20196;-73
2022/07/01 06:42:17;;;;;;;0.90;0.90;;;;;;;;;;5056851;28;20204;-72
2022/07/01 06:45:04;;;;;;;1.15;1.15;;;;;;;;;;5065305;28;20767;-71
2022/07/01 06:47:51;;;;;;;0.95;0.95;;;;;;;;;;5054302;28;20216;-72
2022/07/01 06:50:38;;;;;;;1.13;1.13;;;;;;;;;;5062404;28;20218;-71
2022/07/01 06:53:25;;;;;;;0.95;0.95;;;;;;;;;;5064886;28;20269;-72
2022/07/01 06:56:13;;;;;;;1.00;1.00;;;;;;;;;;5053900;28;20211;-70
2022/07/01 06:59:02;;;;;;;1.10;1.10;;;;;;;;;;5057649;28;20203;-71
2022/07/01 07:01:49;;;;;;;1.00;1.00;;;;;;;;;;5062027;28;20359;-71
2022/07/01 07:04:36;;;;;;;0.70;0.70;;;;;;;;;;5055527;28;20577;-71
2022/07/01 07:07:23;;;;;;;0.77;0.77;;;;;;;;;;5051831;28;20223;-72
2022/07/01 07:10:10;;;;;;;0.80;0.80;;;;;;;;;;5053891;28;20250;-69
2022/07/01 07:12:57;;;;;;;1.00;1.00;;;;;;;;;;5051969;28;20211;-72
2022/07/01 07:15:46;;;;;;;0.95;0.85;;;;;;;;;;5058873;28;20207;-70
2022/07/01 07:18:33;;;;;;;1.00;1.00;;;;;;;;;;5054501;28;20212;-69
2022/07/01 07:21:20;;;;;;;1.95;1.02;;;;;;;;;;5056220;28;20198;-70
2022/07/01 07:24:07;;;;;;;0.98;0.98;;;;;;;;;;5061790;28;20195;-70
2022/07/01 07:26:54;;;;;;;0.90;0.90;;;;;;;;;;5055583;28;20206;-70
2022/07/01 07:29:41;;;;;;;0.93;0.93;;;;;;;;;;5059653;28;20213;-71
2022/07/01 07:32:30;;;;;;;0.98;0.98;;;;;;;;;;5059808;28;20207;-71
2022/07/01 07:35:17;;;;;;;0.98;0.98;;;;;;;;;;5058023;28;20211;-73
2022/07/01 07:38:04;;;;;;;0.80;0.80;;;;;;;;;;5053288;28;20218;-71
2022/07/01 07:40:51;;;;;;;0.77;0.77;;;;;;;;;;5058103;28;20217;-72
2022/07/01 07:43:38;;;;;;;0.82;0.82;;;;;;;;;;5059667;28;20215;-71
2022/07/01 07:46:25;;;;;;;1.25;0.88;;;;;;;;;;5057566;28;20215;-71
2022/07/01 07:49:13;;;;;;;0.80;0.80;;;;;;;;;;5056768;28;20241;-71
2022/07/01 07:52:00;;;;;;;1.65;0.80;;;;;;;;;;5061828;28;20286;-72
2022/07/01 07:54:47;;;;;;;0.80;0.80;;;;;;;;;;5059954;28;20221;-71
2022/07/01 07:57:36;;;;;;;1.00;0.85;;;;;;;;;;5056036;28;20210;-72
2022/07/01 08:00:23;;;;;;;0.98;0.90;;;;;;;;;;5059230;28;20199;-71
2022/07/01 08:03:10;;;;;;;0.55;0.55;;;;;;;;;;5064645;28;20223;-72
2022/07/01 08:05:58;;;;;;;0.88;0.88;;;;;;;;;;5055697;28;20211;-71
2022/07/01 08:08:46;;;;;;;0.85;0.85;;;;;;;;;;5057998;28;20250;-71
2022/07/01 08:11:33;;;;;;;0.75;0.75;;;;;;;;;;5058828;28;20217;-71
2022/07/01 08:14:20;;;;;;;1.23;0.90;;;;;;;;;;5062999;28;20214;-71
2022/07/01 08:17:07;;;;;;;0.70;0.70;;;;;;;;;;5060968;28;20199;-72
2022/07/01 08:19:54;;;;;;;0.52;0.52;;;;;;;;;;5061649;28;20567;-70
2022/07/01 08:22:42;;;;;;;0.98;0.98;;;;;;;;;;5060769;28;20678;-71
2022/07/01 08:25:29;;;;;;;0.75;0.75;;;;;;;;;;5057869;28;20687;-70
2022/07/01 08:28:17;;;;;;;0.88;0.88;;;;;;;;;;5053381;28;20238;-71
2022/07/01 08:31:04;;;;;;;0.70;0.70;;;;;;;;;;5062148;28;20667;-71
2022/07/01 08:33:51;;;;;;;0.70;0.70;;;;;;;;;;5066080;28;20257;-71
2022/07/01 08:36:38;;;;;;;0.80;0.80;;;;;;;;;;5055539;28;20217;-71
2022/07/01 08:39:26;;;;;;;0.75;0.75;;;;;;;;;;5058868;28;20203;-71
2022/07/01 08:42:14;;;;;;;0.88;0.88;;;;;;;;;;5062002;28;20203;-73
2022/07/01 08:45:01;;;;;;;0.95;0.90;;;;;;;;;;5057467;28;20686;-71
2022/07/01 08:47:52;;;;;;;0.80;0.80;;;;;;;;;;5058826;28;20214;-71
2022/07/01 08:50:41;;;;;;;0.70;0.70;;;;;;;;;;5057573;28;20217;-70
2022/07/01 08:53:28;;;;;;;0.82;0.82;;;;;;;;;;5056923;28;20298;-70
2022/07/01 08:59:25;;;;;;;0.70;0.70;;;;;;;;;;5055876;28;20675;-72
2022/07/01 09:02:12;;;;;;;0.95;0.95;;;;;;;;;;5055277;28;20223;-71
2022/07/01 09:05:06;;;;;;;0.80;0.80;;;;;;;;;;5061992;28;20675;-71
2022/07/01 09:07:58;;;;;;;1.10;1.10;;;;;;;;;;5055966;28;20276;-71
2022/07/01 09:10:45;;;;;;;0.98;0.98;;;;;;;;;;5041680;28;20256;-71
2022/07/01 09:13:34;;;;;;;0.90;0.90;;;;;;;;;;5039369;28;20208;-71
2022/07/01 09:16:21;;;;;;;0.80;0.80;;;;;;;;;;5039534;28;20587;-72
2022/07/01 09:19:08;;;;;;;0.82;0.82;;;;;;;;;;5037967;28;20204;-71
2022/07/01 09:21:57;;;;;;;0.90;0.90;;;;;;;;;;5042152;28;20568;-71
2022/07/01 09:24:44;;;;;;;0.82;0.82;;;;;;;;;;5041287;28;20215;-70
2022/07/01 09:27:31;;;;;;;0.90;0.90;;;;;;;;;;5043165;28;20402;-70
2022/07/01 09:30:27;;;;;;;1.10;1.10;;;;;;;;;;5044349;28;20215;-71
2022/07/01 09:33:16;;;;;;;1.00;1.00;;;;;;;;;;5041157;28;20208;-72
2022/07/01 09:36:04;;;;;;;0.90;0.90;;;;;;;;;;5039033;28;20232;-71
2022/07/01 09:38:51;;;;;;;0.70;0.70;;;;;;;;;;5040467;28;20208;-71
2022/07/01 09:41:38;;;;;;;0.90;0.90;;;;;;;;;;5050145;28;20208;-70
2022/07/01 09:44:26;;;;;;;0.95;0.95;;;;;;;;;;5043679;28;20211;-71
2022/07/01 09:47:14;;;;;;;0.90;0.90;;;;;;;;;;5042146;28;20213;-70
2022/07/01 09:50:02;;;;;;;1.00;1.00;;;;;;;;;;5041651;28;20224;-71
2022/07/01 09:52:49;;;;;;;0.90;0.90;;;;;;;;;;5042854;28;20199;-71
2022/07/01 09:55:36;;;;;;;0.90;0.90;;;;;;;;;;5040369;28;20220;-70
2022/07/01 09:58:23;;;;;;;0.90;0.90;;;;;;;;;;5042932;28;20216;-70
2022/07/01 10:01:11;;;;;;;0.73;0.73;;;;;;;;;;5046005;28;20239;-71
2022/07/01 10:04:01;;;;;;;0.80;0.80;;;;;;;;;;5041170;28;20208;-71
2022/07/01 10:07:19;;;;;;;0.90;0.90;;;;;;;;;;5043479;28;20215;-70
2022/07/01 10:10:18;;;;;;;0.70;0.70;;;;;;;;;;5034603;28;20247;-71
2022/07/01 10:13:08;;;;;;;0.70;0.70;;;;;;;;;;5038492;28;20199;-71
2022/07/01 10:15:56;;;;;;;1.00;1.00;;;;;;;;;;5045165;28;20208;-70
2022/07/01 10:18:43;;;;;;;0.90;0.90;;;;;;;;;;5039975;28;20201;-70
2022/07/01 10:21:32;;;;;;;0.90;0.90;;;;;;;;;;5041373;28;20206;-70
2022/07/01 10:24:20;;;;;;;0.90;0.90;;;;;;;;;;5043145;28;20196;-70
2022/07/01 10:27:20;;;;;;;0.90;0.90;;;;;;;;;;5037762;28;20193;-71
2022/07/01 10:30:15;;;;;;;1.00;1.00;;;;;;;;;;5041682;28;20231;-72
2022/07/01 10:33:02;;;;;;;0.80;0.80;;;;;;;;;;5043514;28;20295;-71
2022/07/01 10:35:49;;;;;;;0.90;0.90;;;;;;;;;;5044660;28;20872;-70
2022/07/01 10:39:13;;;;;;;0.90;0.90;;;;;;;;;;5040752;28;20208;-71
2022/07/01 10:42:05;;;;;;;0.90;0.90;;;;;;;;;;5038391;28;20208;-70
2022/07/01 10:45:05;;;;;;;1.00;1.00;;;;;;;;;;5042183;28;20200;-70
2022/07/01 10:48:20;;;;;;;1.38;1.27;;;;;;;;;;5040286;28;20240;-70
2022/07/01 10:51:07;;;;;;;0.90;0.90;;;;;;;;;;5043271;28;20231;-71
2022/07/01 10:53:54;;;;;;;1.00;1.00;;;;;;;;;;5035516;28;20215;-71
2022/07/01 10:56:42;;;;;;;1.05;1.05;;;;;;;;;;5048614;28;20199;-70
2022/07/01 10:59:29;;;;;;;0.90;0.90;;;;;;;;;;5047799;28;20570;-71
2022/07/01 11:02:18;;;;;;;0.80;0.80;;;;;;;;;;5043829;28;20229;-70
2022/07/01 11:05:09;;;;;;;1.10;1.10;;;;;;;;;;5036273;28;20657;-70
2022/07/01 11:07:56;;;;;;;0.90;0.90;;;;;;;;;;5040539;28;20256;-71
2022/07/01 11:10:44;;;;;;;0.70;0.70;;;;;;;;;;5062784;28;20246;-70
2022/07/01 11:13:32;;;;;;;1.17;1.17;;;;;;;;;;5060740;28;20789;-70
2022/07/01 11:16:19;;;;;;;0.77;0.77;;;;;;;;;;5059728;28;20207;-71
2022/07/01 11:19:07;;;;;;;0.80;0.80;;;;;;;;;;5060056;28;20211;-70
2022/07/01 11:21:56;;;;;;;0.85;0.85;;;;;;;;;;5064767;28;20655;-70
2022/07/01 11:24:44;;;;;;;0.90;0.90;;;;;;;;;;5055025;28;20212;-71
2022/07/01 11:27:32;;;;;;;0.88;0.88;;;;;;;;;;5064371;28;20211;-70
2022/07/01 11:30:22;;;;;;;0.80;0.80;;;;;;;;;;5057178;28;20355;-71
2022/07/01 11:33:10;;;;;;;1.08;1.08;;;;;;;;;;5056265;28;20286;-71
2022/07/01 11:42:09;;;;;;;0.82;0.82;;;;;;;;;;5063240;28;20203;-72
2022/07/01 11:44:56;;;;;;;1.02;1.02;;;;;;;;;;5054434;28;20200;-72
2022/07/01 11:47:45;;;;;;;0.80;0.80;;;;;;;;;;5062660;28;20298;-70
2022/07/01 11:50:33;;;;;;;0.95;0.95;;;;;;;;;;5063387;28;20227;-71
2022/07/01 11:53:21;;;;;;;0.70;0.70;;;;;;;;;;5060221;28;20298;-71
2022/07/01 11:56:08;;;;;;;1.27;1.17;;;;;;;;;;5060340;28;20596;-71
2022/07/01 11:58:56;;;;;;;0.98;0.98;;;;;;;;;;5059942;28;20210;-70
2022/07/01 12:01:52;;;;;;;0.93;0.93;;;;;;;;;;5058970;28;20206;-70
2022/07/01 12:04:41;;;;;;;0.85;0.77;;;;;;;;;;5060834;28;20210;-70
2022/07/01 12:07:29;;;;;;;1.48;1.25;;;;;;;;;;5056740;28;20611;-70
2022/07/01 12:10:17;;;;;;;0.80;0.80;;;;;;;;;;5058239;28;20239;-71
2022/07/01 12:13:22;;;;;;;0.70;0.70;;;;;;;;;;5057993;28;20234;-70
2022/07/01 12:16:10;;;;;;;0.98;0.98;;;;;;;;;;5055788;28;20207;-70
2022/07/01 12:18:59;;;;;;;0.70;0.70;;;;;;;;;;5054432;28;20688;-71
2022/07/01 12:21:54;;;;;;;0.93;0.93;;;;;;;;;;5058849;28;20200;-70
2022/07/01 12:24:41;;;;;;;1.02;1.02;;;;;;;;;;5054413;28;20210;-70
2022/07/01 12:27:28;;;;;;;0.93;0.93;;;;;;;;;;5062026;28;20234;-71
2022/07/01 12:30:32;;;;;;;0.90;0.90;;;;;;;;;;5060458;28;20231;-70
2022/07/01 12:33:20;;;;;;;0.80;0.80;;;;;;;;;;5059075;28;20218;-70
2022/07/01 12:36:08;;;;;;;0.93;0.93;;;;;;;;;;5063335;28;20234;-70
2022/07/01 12:39:04;;;;;;;1.10;1.10;;;;;;;;;;5065497;28;20207;-70
2022/07/01 12:41:52;;;;;;;1.00;1.00;;;;;;;;;;5060188;28;20746;-70
2022/07/01 12:44:46;;;;;;;1.05;1.05;;;;;;;;;;5057431;28;20211;-71
2022/07/01 12:47:34;;;;;;;1.08;1.08;;;;;;;;;;5056345;28;20255;-70
2022/07/01 12:50:23;;;;;;;1.00;1.00;;;;;;;;;;5056206;28;20695;-71
2022/07/01 12:53:12;;;;;;;1.13;1.13;;;;;;;;;;5055356;28;20206;-71
2022/07/01 12:56:01;;;;;;;1.13;1.05;;;;;;;;;;5057543;28;20250;-70
2022/07/01 12:58:48;;;;;;;1.10;1.10;;;;;;;;;;5053665;28;20239;-70
2022/07/01 13:01:34;;;;;;;0.90;0.90;;;;;;;;;;5057185;28;20206;-71
2022/07/01 13:04:25;;;;;;;1.00;1.00;;;;;;;;;;5062993;28;20222;-71
2022/07/01 13:07:12;;;;;;;0.80;0.80;;;;;;;;;;5061556;28;20214;-70
2022/07/01 13:09:59;;;;;;;0.80;0.80;;;;;;;;;;5056910;28;20234;-70
2022/07/01 13:12:48;;;;;;;0.85;0.85;;;;;;;;;;5058682;28;20583;-70
2022/07/01 13:15:36;;;;;;;1.00;1.00;;;;;;;;;;5059593;28;20207;-70
2022/07/01 13:18:23;;;;;;;1.20;1.20;;;;;;;;;;5055819;28;20268;-70
2022/07/01 13:21:10;;;;;;;1.00;1.00;;;;;;;;;;5063740;28;20211;-70
2022/07/01 13:23:57;;;;;;;0.90;0.90;;;;;;;;;;5054727;28;20211;-70
2022/07/01 13:26:44;;;;;;;1.17;1.17;;;;;;;;;;5059690;28;20208;-70
2022/07/01 13:29:33;;;;;;;0.90;0.90;;;;;;;;;;5057946;28;20270;-71
2022/07/01 13:32:20;;;;;;;1.08;1.08;;;;;;;;;;5057798;28;20235;-71
2022/07/01 13:35:09;;;;;;;1.05;1.05;;;;;;;;;;5058651;28;20223;-71
2022/07/01 13:37:56;;;;;;;1.13;1.10;;;;;;;;;;5062496;28;20214;-71
2022/07/01 13:40:43;;;;;;;1.20;1.20;;;;;;;;;;5063264;28;20216;-71
2022/07/01 13:43:30;;;;;;;1.17;1.17;;;;;;;;;;5056329;28;20218;-70
2022/07/01 13:46:18;;;;;;;1.15;1.15;;;;;;;;;;5059640;28;20656;-70
2022/07/01 13:49:05;;;;;;;1.30;1.30;;;;;;;;;;5057829;28;20203;-71
2022/07/01 13:51:52;;;;;;;0.90;0.90;;;;;;;;;;5064424;28;20467;-69
2022/07/01 13:54:39;;;;;;;1.25;1.20;;;;;;;;;;5065922;28;20253;-69
2022/07/01 13:57:27;;;;;;;1.17;1.17;;;;;;;;;;5059077;28;20215;-70
2022/07/01 14:00:15;;;;;;;1.10;1.10;;;;;;;;;;5060557;28;20686;-69
2022/07/01 14:03:03;;;;;;;1.13;1.13;;;;;;;;;;5061638;28;20289;-69
2022/07/01 14:05:51;;;;;;;1.30;1.30;;;;;;;;;;5058505;28;20211;-72
2022/07/01 14:08:38;;;;;;;1.27;1.20;;;;;;;;;;5056457;28;20330;-72
2022/07/01 14:11:25;;;;;;;1.73;1.63;;;;;;;;;;5064809;28;20215;-72
2022/07/01 14:14:12;;;;;;;1.42;1.42;;;;;;;;;;5060980;28;20204;-72
2022/07/01 14:16:59;;;;;;;1.98;1.40;;;;;;;;;;5057562;28;20289;-71
2022/07/01 14:19:47;;;;;;;1.10;1.10;;;;;;;;;;5063326;28;20208;-72
2022/07/01 14:22:35;;;;;;;1.42;1.42;;;;;;;;;;5064467;28;20267;-72
2022/07/01 14:25:22;;;;;;;1.25;1.25;;;;;;;;;;5062340;28;20210;-72
2022/07/01 14:28:09;;;;;;;1.33;1.33;;;;;;;;;;5060308;28;20257;-71
2022/07/01 14:30:56;;;;;;;1.20;1.20;;;;;;;;;;5056915;28;20229;-70
2022/07/01 14:33:44;;;;;;;1.42;1.42;;;;;;;;;;5066831;28;20575;-72
2022/07/01 14:36:33;;;;;;;1.30;1.30;;;;;;;;;;5064117;28;20211;-72
2022/07/01 14:39:20;;;;;;;1.42;1.42;;;;;;;;;;5061906;28;20207;-71
2022/07/01 14:42:07;;;;;;;1.52;1.50;;;;;;;;;;5064982;28;20222;-72
2022/07/01 14:44:55;;;;;;;1.60;1.60;;;;;;;;;;5065676;28;20257;-71
2022/07/01 14:47:42;;;;;;;1.48;1.48;;;;;;;;;;5065690;28;20214;-71
2022/07/01 14:50:30;;;;;;;1.60;1.60;;;;;;;;;;5061126;28;20560;-72
2022/07/01 14:53:19;;;;;;;1.65;1.55;;;;;;;;;;5061360;28;20208;-72
2022/07/01 14:56:06;;;;;;;1.50;1.40;;;;;;;;;;5065256;28;20283;-71
2022/07/01 14:58:52;;;;;;;1.45;1.45;;;;;;;;;;5058527;28;20275;-71
2022/07/01 15:01:39;;;;;;;1.70;1.70;;;;;;;;;;5061857;28;20285;-71
2022/07/01 15:04:26;;;;;;;1.67;1.63;;;;;;;;;;5060910;28;20581;-72
2022/07/01 15:07:14;;;;;;;1.67;1.58;;;;;;;;;;5060035;28;20214;-70
2022/07/01 15:10:03;;;;;;;1.80;1.70;;;;;;;;;;5056018;28;20259;-71
2022/07/01 15:12:51;;;;;;;1.42;1.42;;;;;;;;;;5058868;28;20336;-71
2022/07/01 15:15:39;;;;;;;1.60;1.60;;;;;;;;;;5062401;28;20305;-70
2022/07/01 15:18:26;;;;;;;1.40;1.40;;;;;;;;;;5061062;28;20268;-71
2022/07/01 15:21:13;;;;;;;1.23;1.23;;;;;;;;;;5052774;28;20227;-72
2022/07/01 15:24:00;;;;;;;1.83;1.70;;;;;;;;;;5056411;28;20200;-71
2022/07/01 15:26:49;;;;;;;1.60;1.60;;;;;;;;;;5061978;28;20237;-72
2022/07/01 15:29:38;;;;;;;1.60;1.60;;;;;;;;;;5058862;28;20239;-72
2022/07/01 15:32:25;;;;;;;1.70;1.60;;;;;;;;;;5062707;28;20195;-71
2022/07/01 15:35:13;;;;;;;1.83;1.73;;;;;;;;;;5059075;28;20207;-71
2022/07/01 15:38:00;;;;;;;1.75;1.70;;;;;;;;;;5058639;28;20239;-72
2022/07/01 15:40:47;;;;;;;2.08;1.85;;;;;;;;;;5058867;28;20202;-71
2022/07/01 15:43:36;;;;;;;1.98;1.88;;;;;;;;;;5062655;28;20733;-71
2022/07/01 15:46:23;;;;;;;1.70;1.70;;;;;;;;;;5058536;28;20215;-71
2022/07/01 15:49:11;;;;;;;1.85;1.85;;;;;;;;;;5066228;28;20212;-72
2022/07/01 15:51:59;;;;;;;1.70;1.70;;;;;;;;;;5061547;28;20238;-72
2022/07/01 15:54:46;;;;;;;1.80;1.80;;;;;;;;;;5064369;28;20576;-72
2022/07/01 15:57:33;;;;;;;1.90;1.80;;;;;;;;;;5060365;28;20207;-72
2022/07/01 16:00:22;;;;;;;1.80;1.80;;;;;;;;;;5064075;28;20360;-72
2022/07/01 16:03:10;;;;;;;1.88;1.85;;;;;;;;;;5059145;28;20227;-71
2022/07/01 16:06:03;;;;;;;1.90;1.80;;;;;;;;;;5058349;28;20204;-72
2022/07/01 16:08:55;;;;;;;2.22;2.13;;;;;;;;;;5060067;28;20234;-71
2022/07/01 16:11:43;;;;;;;1.55;1.55;;;;;;;;;;5058459;28;20219;-72
2022/07/01 16:14:32;;;;;;;1.90;1.90;;;;;;;;;;5059845;28;20233;-71
2022/07/01 16:17:24;;;;;;;1.88;1.83;;;;;;;;;;5060179;28;20654;-71
2022/07/01 16:20:13;;;;;;;2.17;2.08;;;;;;;;;;5056808;28;20210;-71
2022/07/01 16:23:01;;;;;;;2.10;2.00;;;;;;;;;;5056617;28;20212;-71
2022/07/01 16:25:49;;;;;;;2.20;2.10;;;;;;;;;;5060214;28;20668;-71
2022/07/01 16:28:36;;;;;;;2.10;2.00;;;;;;;;;;5060097;28;20312;-72
2022/07/01 16:31:23;;;;;;;2.10;2.00;;;;;;;;;;5059572;28;20315;-72
2022/07/01 16:34:11;;;;;;;2.28;2.17;;;;;;;;;;5056509;28;20595;-71
2022/07/01 16:37:01;;;;;;;2.15;2.10;;;;;;;;;;5061578;28;20631;-72
2022/07/01 16:39:55;;;;;;;2.05;1.95;;;;;;;;;;5060239;28;20203;-72
2022/07/01 16:42:49;;;;;;;2.20;2.10;;;;;;;;;;5058040;28;20337;-71
2022/07/01 16:45:40;;;;;;;2.17;2.17;;;;;;;;;;5053853;28;20230;-71
2022/07/01 16:48:32;;;;;;;2.20;2.10;;;;;;;;;;5052911;28;20261;-71
2022/07/01 16:51:23;;;;;;;2.10;2.00;;;;;;;;;;5063607;28;20598;-71
2022/07/01 16:54:16;;;;;;;2.08;2.00;;;;;;;;;;5060665;28;20290;-71
2022/07/01 16:57:05;;;;;;;2.08;1.98;;;;;;;;;;5062131;28;20206;-71
2022/07/01 16:59:54;;;;;;;2.38;2.28;;;;;;;;;;5060321;28;20256;-71
2022/07/01 17:02:42;;;;;;;2.28;2.17;;;;;;;;;;5065975;28;20595;-70
2022/07/01 17:05:31;;;;;;;2.28;2.22;;;;;;;;;;5060461;28;20212;-72
2022/07/01 17:08:20;;;;;;;2.30;2.20;;;;;;;;;;5061085;28;20211;-72
2022/07/01 17:11:07;;;;;;;2.40;2.30;;;;;;;;;;5059240;28;20220;-70
2022/07/01 17:13:58;;;;;;;2.50;2.40;;;;;;;;;;5062661;28;20203;-72